Terminal Aerodrome Forecast
Issued by NWS

Home | Current Version | Previous Version | Text Only | Print | Product List | Glossary On
Versions: 1 2 3 4 5 6 7 8 9 10 11 12 13 14 15
000
FTAK31 PAJN 280539
TAFAGY
TAF
PAGY 280539Z 2806/2906 20011KT 6SM -SHRA BKN015 OVC030
      TEMPO 2806/2810 BKN009 OVC020
     FM282100 21010KT P6SM VCSH BKN030
      AMD LTD TO CLD VIS AND WIND=

USA.gov is the U.S. government's official web portal to all federal, state and local government web resources and services.